CYPR/YPR METAR and TAF weather

Enter ICAO airport designator
Station Type Date Time Source
CYPR METAR 2021/08/02 01:00 UTC NOAA

CYPR 020100Z AUTO 28007KT 9SM OVC025 16/12 A3015 RMK SLP212


Station Type Date Time Source
CYPR Decoded METAR 2021/08/02 01:00 UTC NOAA

Prince Rupert, B. C., Canada (CYPR) 54-18N 130-26W 34M
Aug 01, 2021 - 09:00 PM EDT / 2021.08.02 0100 UTC
Wind: from the W (280 degrees) at 8 MPH (7 KT):0
Visibility: 9 mile(s):0
Sky conditions: overcast
Temperature: 60 F (16 C)
Dew Point: 53 F (12 C)
Relative Humidity: 77%
Pressure (altimeter): 30.15 in. Hg (1020 hPa)
ob: CYPR 020100Z AUTO 28007KT 9SM OVC025 16/12 A3015 RMK SLP212
cycle: 1

Station Type Date Time Source
CYPR TAF 2021/08/02 01:39 UTC NOAA

TAF TAF CYPR 020038Z 0201/0213 27007KT P6SM BKN025
TEMPO 0201/0205 BKN020
FM020500 VRB03KT P6SM BKN020
TEMPO 0205/0209 2SM BR BKN008
FM020900 VRB03KT 1/2SM FG VV002
TEMPO 0209/0213 3SM BR SCT002 BKN008
RMK FCST BASED ON AUTO OBS. NXT FCST BY 020700Z

Example: see airport list